<?xml version="1.0" encoding="UTF-8" standalone="no" ?>
<gpx xmlns="http://www.topografix.com/GPX/1/1" xmlns:xsi="http://www.w3.org/2001/XMLSchema-instance" xsi:schemaLocation="http://www.topografix.com/GPX/1/1 http://www.topografix.com/GPX/1/1/gpx.xsd" version="1.1" creator="VisuGPX - https://www.visugpx.com">
  <metadata>
    <name>vtt annot à nice</name>
    <desc><![CDATA[randonnée  vtt de st martin de belleville à nice etape 3]]></desc>
  </metadata>
  <trk>
    <name><![CDATA[saint auban à gréolières]]></name>
    <trkseg>
      <trkpt lat="43.84442" lon="6.73019">
        <ele>1029</ele>
        <time>2016-09-10T13:16:28+02:00</time>
      </trkpt>
      <trkpt lat="43.84469" lon="6.73127">
        <ele>1031</ele>
        <time>2016-09-10T13:16:33+02:00</time>
      </trkpt>
      <trkpt lat="43.84487" lon="6.73297">
        <ele>1036</ele>
        <time>2016-09-10T13:16:38+02:00</time>
      </trkpt>
      <trkpt lat="43.84471" lon="6.73878">
        <ele>1033</ele>
        <time>2016-09-10T13:16:43+02:00</time>
      </trkpt>
      <trkpt lat="43.84393" lon="6.74192">
        <ele>1038</ele>
        <time>2016-09-10T13:16:48+02:00</time>
      </trkpt>
      <trkpt lat="43.84284" lon="6.74342">
        <ele>1034</ele>
        <time>2016-09-10T13:16:53+02:00</time>
      </trkpt>
      <trkpt lat="43.83959" lon="6.74519">
        <ele>1047</ele>
        <time>2016-09-10T13:16:58+02:00</time>
      </trkpt>
      <trkpt lat="43.83787" lon="6.7449">
        <ele>1046</ele>
        <time>2016-09-10T13:17:03+02:00</time>
      </trkpt>
      <trkpt lat="43.83897" lon="6.74552">
        <ele>1059</ele>
        <time>2016-09-10T13:17:08+02:00</time>
      </trkpt>
      <trkpt lat="43.84041" lon="6.75051">
        <ele>1095</ele>
        <time>2016-09-10T13:17:13+02:00</time>
      </trkpt>
      <trkpt lat="43.83943" lon="6.7612">
        <ele>1162</ele>
        <time>2016-09-10T13:17:18+02:00</time>
      </trkpt>
      <trkpt lat="43.84122" lon="6.77174">
        <ele>1248</ele>
        <time>2016-09-10T13:17:23+02:00</time>
      </trkpt>
      <trkpt lat="43.83943" lon="6.76914">
        <ele>1245</ele>
        <time>2016-09-10T13:17:28+02:00</time>
      </trkpt>
      <trkpt lat="43.84104" lon="6.77337">
        <ele>1265</ele>
        <time>2016-09-10T13:17:33+02:00</time>
      </trkpt>
      <trkpt lat="43.84089" lon="6.77459">
        <ele>1268</ele>
        <time>2016-09-10T13:17:38+02:00</time>
      </trkpt>
      <trkpt lat="43.84265" lon="6.77457">
        <ele>1294</ele>
        <time>2016-09-10T13:17:43+02:00</time>
      </trkpt>
      <trkpt lat="43.84364" lon="6.77522">
        <ele>1302</ele>
        <time>2016-09-10T13:17:48+02:00</time>
      </trkpt>
      <trkpt lat="43.84472" lon="6.77521">
        <ele>1300</ele>
        <time>2016-09-10T13:17:53+02:00</time>
      </trkpt>
      <trkpt lat="43.84579" lon="6.77601">
        <ele>1282</ele>
        <time>2016-09-10T13:17:58+02:00</time>
      </trkpt>
      <trkpt lat="43.84674" lon="6.77536">
        <ele>1282</ele>
        <time>2016-09-10T13:18:03+02:00</time>
      </trkpt>
      <trkpt lat="43.84598" lon="6.77695">
        <ele>1265</ele>
        <time>2016-09-10T13:18:08+02:00</time>
      </trkpt>
      <trkpt lat="43.845" lon="6.77831">
        <ele>1261</ele>
        <time>2016-09-10T13:18:13+02:00</time>
      </trkpt>
      <trkpt lat="43.84601" lon="6.78041">
        <ele>1250</ele>
        <time>2016-09-10T13:18:18+02:00</time>
      </trkpt>
      <trkpt lat="43.84822" lon="6.78195">
        <ele>1236</ele>
        <time>2016-09-10T13:18:23+02:00</time>
      </trkpt>
      <trkpt lat="43.84887" lon="6.78401">
        <ele>1226</ele>
        <time>2016-09-10T13:18:28+02:00</time>
      </trkpt>
      <trkpt lat="43.84967" lon="6.78565">
        <ele>1221</ele>
        <time>2016-09-10T13:18:33+02:00</time>
      </trkpt>
      <trkpt lat="43.85087" lon="6.78519">
        <ele>1200</ele>
        <time>2016-09-10T13:18:38+02:00</time>
      </trkpt>
      <trkpt lat="43.85175" lon="6.78751">
        <ele>1171</ele>
        <time>2016-09-10T13:18:43+02:00</time>
      </trkpt>
      <trkpt lat="43.8517" lon="6.78577">
        <ele>1155</ele>
        <time>2016-09-10T13:18:48+02:00</time>
      </trkpt>
      <trkpt lat="43.85288" lon="6.78843">
        <ele>1083</ele>
        <time>2016-09-10T13:18:53+02:00</time>
      </trkpt>
      <trkpt lat="43.85552" lon="6.78968">
        <ele>953</ele>
        <time>2016-09-10T13:18:58+02:00</time>
      </trkpt>
      <trkpt lat="43.85357" lon="6.79123">
        <ele>971</ele>
        <time>2016-09-10T13:19:03+02:00</time>
      </trkpt>
      <trkpt lat="43.8567" lon="6.7941">
        <ele>952</ele>
        <time>2016-09-10T13:19:08+02:00</time>
      </trkpt>
      <trkpt lat="43.85885" lon="6.79403">
        <ele>890</ele>
        <time>2016-09-10T13:19:13+02:00</time>
      </trkpt>
      <trkpt lat="43.86087" lon="6.79552">
        <ele>829</ele>
        <time>2016-09-10T13:19:18+02:00</time>
      </trkpt>
      <trkpt lat="43.86088" lon="6.79774">
        <ele>783</ele>
        <time>2016-09-10T13:19:23+02:00</time>
      </trkpt>
      <trkpt lat="43.86172" lon="6.79927">
        <ele>764</ele>
        <time>2016-09-10T13:19:28+02:00</time>
      </trkpt>
      <trkpt lat="43.86222" lon="6.80068">
        <ele>757</ele>
        <time>2016-09-10T13:19:33+02:00</time>
      </trkpt>
      <trkpt lat="43.8627" lon="6.803">
        <ele>737</ele>
        <time>2016-09-10T13:19:38+02:00</time>
      </trkpt>
      <trkpt lat="43.86239" lon="6.80586">
        <ele>736</ele>
        <time>2016-09-10T13:19:43+02:00</time>
      </trkpt>
      <trkpt lat="43.86254" lon="6.80693">
        <ele>725</ele>
        <time>2016-09-10T13:19:48+02:00</time>
      </trkpt>
      <trkpt lat="43.86203" lon="6.8072">
        <ele>731</ele>
        <time>2016-09-10T13:19:53+02:00</time>
      </trkpt>
      <trkpt lat="43.86037" lon="6.8088">
        <ele>756</ele>
        <time>2016-09-10T13:19:58+02:00</time>
      </trkpt>
      <trkpt lat="43.85953" lon="6.81204">
        <ele>759</ele>
        <time>2016-09-10T13:20:03+02:00</time>
      </trkpt>
      <trkpt lat="43.85818" lon="6.81281">
        <ele>770</ele>
        <time>2016-09-10T13:20:08+02:00</time>
      </trkpt>
      <trkpt lat="43.85851" lon="6.81525">
        <ele>755</ele>
        <time>2016-09-10T13:20:13+02:00</time>
      </trkpt>
      <trkpt lat="43.85738" lon="6.81909">
        <ele>752</ele>
        <time>2016-09-10T13:20:18+02:00</time>
      </trkpt>
      <trkpt lat="43.8578" lon="6.82233">
        <ele>739</ele>
        <time>2016-09-10T13:20:23+02:00</time>
      </trkpt>
      <trkpt lat="43.85756" lon="6.82556">
        <ele>741</ele>
        <time>2016-09-10T13:20:28+02:00</time>
      </trkpt>
      <trkpt lat="43.86069" lon="6.83109">
        <ele>696</ele>
        <time>2016-09-10T13:20:33+02:00</time>
      </trkpt>
      <trkpt lat="43.86179" lon="6.8369">
        <ele>692</ele>
        <time>2016-09-10T13:20:38+02:00</time>
      </trkpt>
      <trkpt lat="43.86499" lon="6.84363">
        <ele>678</ele>
        <time>2016-09-10T13:20:43+02:00</time>
      </trkpt>
      <trkpt lat="43.86479" lon="6.84931">
        <ele>731</ele>
        <time>2016-09-10T13:20:48+02:00</time>
      </trkpt>
      <trkpt lat="43.86428" lon="6.8516">
        <ele>754</ele>
        <time>2016-09-10T13:20:53+02:00</time>
      </trkpt>
      <trkpt lat="43.86533" lon="6.85317">
        <ele>767</ele>
        <time>2016-09-10T13:20:58+02:00</time>
      </trkpt>
      <trkpt lat="43.86502" lon="6.85604">
        <ele>772</ele>
        <time>2016-09-10T13:21:03+02:00</time>
      </trkpt>
      <trkpt lat="43.86626" lon="6.86175">
        <ele>700</ele>
        <time>2016-09-10T13:21:08+02:00</time>
      </trkpt>
      <trkpt lat="43.86931" lon="6.86461">
        <ele>672</ele>
        <time>2016-09-10T13:21:13+02:00</time>
      </trkpt>
      <trkpt lat="43.87195" lon="6.86895">
        <ele>598</ele>
        <time>2016-09-10T13:21:18+02:00</time>
      </trkpt>
      <trkpt lat="43.87174" lon="6.87089">
        <ele>607</ele>
        <time>2016-09-10T13:21:23+02:00</time>
      </trkpt>
      <trkpt lat="43.86845" lon="6.86946">
        <ele>661</ele>
        <time>2016-09-10T13:21:28+02:00</time>
      </trkpt>
      <trkpt lat="43.87038" lon="6.8687">
        <ele>652</ele>
        <time>2016-09-10T13:21:33+02:00</time>
      </trkpt>
      <trkpt lat="43.86728" lon="6.86465">
        <ele>695</ele>
        <time>2016-09-10T13:21:38+02:00</time>
      </trkpt>
      <trkpt lat="43.86437" lon="6.86815">
        <ele>760</ele>
        <time>2016-09-10T13:21:43+02:00</time>
      </trkpt>
      <trkpt lat="43.86128" lon="6.86664">
        <ele>810</ele>
        <time>2016-09-10T13:21:48+02:00</time>
      </trkpt>
      <trkpt lat="43.86153" lon="6.86538">
        <ele>804</ele>
        <time>2016-09-10T13:21:53+02:00</time>
      </trkpt>
      <trkpt lat="43.86074" lon="6.86362">
        <ele>831</ele>
        <time>2016-09-10T13:21:58+02:00</time>
      </trkpt>
      <trkpt lat="43.8617" lon="6.86231">
        <ele>821</ele>
        <time>2016-09-10T13:22:03+02:00</time>
      </trkpt>
      <trkpt lat="43.86053" lon="6.85702">
        <ele>872</ele>
        <time>2016-09-10T13:22:08+02:00</time>
      </trkpt>
      <trkpt lat="43.85908" lon="6.86422">
        <ele>921</ele>
        <time>2016-09-10T13:22:13+02:00</time>
      </trkpt>
      <trkpt lat="43.85953" lon="6.87422">
        <ele>993</ele>
        <time>2016-09-10T13:22:18+02:00</time>
      </trkpt>
      <trkpt lat="43.86043" lon="6.88188">
        <ele>1023</ele>
        <time>2016-09-10T13:22:23+02:00</time>
      </trkpt>
      <trkpt lat="43.86239" lon="6.89006">
        <ele>1012</ele>
        <time>2016-09-10T13:22:28+02:00</time>
      </trkpt>
      <trkpt lat="43.86143" lon="6.89085">
        <ele>1052</ele>
        <time>2016-09-10T13:22:33+02:00</time>
      </trkpt>
      <trkpt lat="43.86136" lon="6.89188">
        <ele>1053</ele>
        <time>2016-09-10T13:22:38+02:00</time>
      </trkpt>
      <trkpt lat="43.86059" lon="6.89139">
        <ele>1096</ele>
        <time>2016-09-10T13:22:43+02:00</time>
      </trkpt>
      <trkpt lat="43.86043" lon="6.89392">
        <ele>1116</ele>
        <time>2016-09-10T13:22:48+02:00</time>
      </trkpt>
      <trkpt lat="43.85911" lon="6.89521">
        <ele>1152</ele>
        <time>2016-09-10T13:22:53+02:00</time>
      </trkpt>
      <trkpt lat="43.85749" lon="6.89293">
        <ele>1121</ele>
        <time>2016-09-10T13:22:58+02:00</time>
      </trkpt>
      <trkpt lat="43.85665" lon="6.8963">
        <ele>998</ele>
        <time>2016-09-10T13:23:03+02:00</time>
      </trkpt>
      <trkpt lat="43.85537" lon="6.8944">
        <ele>968</ele>
        <time>2016-09-10T13:23:08+02:00</time>
      </trkpt>
      <trkpt lat="43.856" lon="6.89699">
        <ele>927</ele>
        <time>2016-09-10T13:23:13+02:00</time>
      </trkpt>
      <trkpt lat="43.85542" lon="6.89782">
        <ele>866</ele>
        <time>2016-09-10T13:23:18+02:00</time>
      </trkpt>
      <trkpt lat="43.85565" lon="6.9022">
        <ele>757</ele>
        <time>2016-09-10T13:23:23+02:00</time>
      </trkpt>
      <trkpt lat="43.85277" lon="6.89851">
        <ele>711</ele>
        <time>2016-09-10T13:23:28+02:00</time>
      </trkpt>
      <trkpt lat="43.85266" lon="6.89727">
        <ele>726</ele>
        <time>2016-09-10T13:23:33+02:00</time>
      </trkpt>
      <trkpt lat="43.8513" lon="6.89572">
        <ele>692</ele>
        <time>2016-09-10T13:23:38+02:00</time>
      </trkpt>
      <trkpt lat="43.85085" lon="6.89604">
        <ele>674</ele>
        <time>2016-09-10T13:23:43+02:00</time>
      </trkpt>
      <trkpt lat="43.85215" lon="6.89763">
        <ele>689</ele>
        <time>2016-09-10T13:23:48+02:00</time>
      </trkpt>
      <trkpt lat="43.852" lon="6.899">
        <ele>663</ele>
        <time>2016-09-10T13:23:53+02:00</time>
      </trkpt>
      <trkpt lat="43.85275" lon="6.89995">
        <ele>671</ele>
        <time>2016-09-10T13:23:58+02:00</time>
      </trkpt>
      <trkpt lat="43.85274" lon="6.90121">
        <ele>650</ele>
        <time>2016-09-10T13:24:03+02:00</time>
      </trkpt>
      <trkpt lat="43.85234" lon="6.89995">
        <ele>652</ele>
        <time>2016-09-10T13:24:08+02:00</time>
      </trkpt>
      <trkpt lat="43.85125" lon="6.89977">
        <ele>619</ele>
        <time>2016-09-10T13:24:13+02:00</time>
      </trkpt>
      <trkpt lat="43.85217" lon="6.90018">
        <ele>641</ele>
        <time>2016-09-10T13:24:18+02:00</time>
      </trkpt>
      <trkpt lat="43.85212" lon="6.90154">
        <ele>617</ele>
        <time>2016-09-10T13:24:23+02:00</time>
      </trkpt>
      <trkpt lat="43.85289" lon="6.90366">
        <ele>614</ele>
        <time>2016-09-10T13:24:28+02:00</time>
      </trkpt>
      <trkpt lat="43.85399" lon="6.90641">
        <ele>596</ele>
        <time>2016-09-10T13:24:33+02:00</time>
      </trkpt>
      <trkpt lat="43.85415" lon="6.90823">
        <ele>560</ele>
        <time>2016-09-10T13:24:38+02:00</time>
      </trkpt>
      <trkpt lat="43.85392" lon="6.91027">
        <ele>514</ele>
        <time>2016-09-10T13:24:43+02:00</time>
      </trkpt>
      <trkpt lat="43.85449" lon="6.91128">
        <ele>513</ele>
        <time>2016-09-10T13:24:48+02:00</time>
      </trkpt>
      <trkpt lat="43.85322" lon="6.91233">
        <ele>472</ele>
        <time>2016-09-10T13:24:53+02:00</time>
      </trkpt>
      <trkpt lat="43.85347" lon="6.91308">
        <ele>460</ele>
        <time>2016-09-10T13:24:58+02:00</time>
      </trkpt>
      <trkpt lat="43.85265" lon="6.91312">
        <ele>466</ele>
        <time>2016-09-10T13:25:03+02:00</time>
      </trkpt>
      <trkpt lat="43.85231" lon="6.91475">
        <ele>475</ele>
        <time>2016-09-10T13:25:08+02:00</time>
      </trkpt>
      <trkpt lat="43.85258" lon="6.91583">
        <ele>457</ele>
        <time>2016-09-10T13:25:13+02:00</time>
      </trkpt>
      <trkpt lat="43.85127" lon="6.91696">
        <ele>469</ele>
        <time>2016-09-10T13:25:18+02:00</time>
      </trkpt>
      <trkpt lat="43.84985" lon="6.91761">
        <ele>507</ele>
        <time>2016-09-10T13:25:23+02:00</time>
      </trkpt>
      <trkpt lat="43.8496" lon="6.91945">
        <ele>521</ele>
        <time>2016-09-10T13:25:28+02:00</time>
      </trkpt>
      <trkpt lat="43.84853" lon="6.91932">
        <ele>579</ele>
        <time>2016-09-10T13:25:33+02:00</time>
      </trkpt>
      <trkpt lat="43.84779" lon="6.9205">
        <ele>601</ele>
        <time>2016-09-10T13:25:38+02:00</time>
      </trkpt>
      <trkpt lat="43.84726" lon="6.92231">
        <ele>627</ele>
        <time>2016-09-10T13:25:43+02:00</time>
      </trkpt>
      <trkpt lat="43.84618" lon="6.92243">
        <ele>702</ele>
        <time>2016-09-10T13:25:48+02:00</time>
      </trkpt>
      <trkpt lat="43.84526" lon="6.92434">
        <ele>734</ele>
        <time>2016-09-10T13:25:53+02:00</time>
      </trkpt>
      <trkpt lat="43.84568" lon="6.92572">
        <ele>700</ele>
        <time>2016-09-10T13:25:58+02:00</time>
      </trkpt>
      <trkpt lat="43.84305" lon="6.92623">
        <ele>810</ele>
        <time>2016-09-10T13:26:03+02:00</time>
      </trkpt>
      <trkpt lat="43.84175" lon="6.92686">
        <ele>845</ele>
        <time>2016-09-10T13:26:08+02:00</time>
      </trkpt>
      <trkpt lat="43.8411" lon="6.92767">
        <ele>858</ele>
        <time>2016-09-10T13:26:13+02:00</time>
      </trkpt>
      <trkpt lat="43.8403" lon="6.92741">
        <ele>873</ele>
        <time>2016-09-10T13:26:18+02:00</time>
      </trkpt>
      <trkpt lat="43.83952" lon="6.92741">
        <ele>886</ele>
        <time>2016-09-10T13:26:23+02:00</time>
      </trkpt>
      <trkpt lat="43.83904" lon="6.92686">
        <ele>901</ele>
        <time>2016-09-10T13:26:28+02:00</time>
      </trkpt>
      <trkpt lat="43.83853" lon="6.92806">
        <ele>905</ele>
        <time>2016-09-10T13:26:33+02:00</time>
      </trkpt>
      <trkpt lat="43.83781" lon="6.92829">
        <ele>923</ele>
        <time>2016-09-10T13:26:38+02:00</time>
      </trkpt>
      <trkpt lat="43.83627" lon="6.9301">
        <ele>966</ele>
        <time>2016-09-10T13:26:43+02:00</time>
      </trkpt>
      <trkpt lat="43.83692" lon="6.93486">
        <ele>1041</ele>
        <time>2016-09-10T13:26:48+02:00</time>
      </trkpt>
      <trkpt lat="43.83568" lon="6.93778">
        <ele>1159</ele>
        <time>2016-09-10T13:26:53+02:00</time>
      </trkpt>
      <trkpt lat="43.83411" lon="6.94117">
        <ele>1283</ele>
        <time>2016-09-10T13:26:58+02:00</time>
      </trkpt>
      <trkpt lat="43.83426" lon="6.94215">
        <ele>1304</ele>
        <time>2016-09-10T13:27:03+02:00</time>
      </trkpt>
      <trkpt lat="43.83514" lon="6.94314">
        <ele>1316</ele>
        <time>2016-09-10T13:27:08+02:00</time>
      </trkpt>
      <trkpt lat="43.83471" lon="6.94554">
        <ele>1380</ele>
        <time>2016-09-10T13:27:13+02:00</time>
      </trkpt>
      <trkpt lat="43.83421" lon="6.94561">
        <ele>1410</ele>
        <time>2016-09-10T13:27:18+02:00</time>
      </trkpt>
      <trkpt lat="43.83373" lon="6.9478">
        <ele>1464</ele>
        <time>2016-09-10T13:27:23+02:00</time>
      </trkpt>
      <trkpt lat="43.83311" lon="6.94813">
        <ele>1462</ele>
        <time>2016-09-10T13:27:28+02:00</time>
      </trkpt>
      <trkpt lat="43.83156" lon="6.94898">
        <ele>1412</ele>
        <time>2016-09-10T13:27:33+02:00</time>
      </trkpt>
      <trkpt lat="43.82986" lon="6.94582">
        <ele>1426</ele>
        <time>2016-09-10T13:27:38+02:00</time>
      </trkpt>
      <trkpt lat="43.82854" lon="6.94587">
        <ele>1430</ele>
        <time>2016-09-10T13:27:43+02:00</time>
      </trkpt>
      <trkpt lat="43.82654" lon="6.94782">
        <ele>1438</ele>
        <time>2016-09-10T13:27:48+02:00</time>
      </trkpt>
      <trkpt lat="43.82486" lon="6.94591">
        <ele>1466</ele>
        <time>2016-09-10T13:27:53+02:00</time>
      </trkpt>
      <trkpt lat="43.82219" lon="6.9469">
        <ele>1493</ele>
        <time>2016-09-10T13:27:58+02:00</time>
      </trkpt>
      <trkpt lat="43.82002" lon="6.94634">
        <ele>1504</ele>
        <time>2016-09-10T13:28:03+02:00</time>
      </trkpt>
      <trkpt lat="43.81925" lon="6.94616">
        <ele>1505</ele>
        <time>2016-09-10T13:28:08+02:00</time>
      </trkpt>
      <trkpt lat="43.818" lon="6.94521">
        <ele>1495</ele>
        <time>2016-09-10T13:28:13+02:00</time>
      </trkpt>
      <trkpt lat="43.81564" lon="6.9443">
        <ele>1451</ele>
        <time>2016-09-10T13:28:18+02:00</time>
      </trkpt>
      <trkpt lat="43.81435" lon="6.94269">
        <ele>1430</ele>
        <time>2016-09-10T13:28:23+02:00</time>
      </trkpt>
      <trkpt lat="43.81248" lon="6.94215">
        <ele>1408</ele>
        <time>2016-09-10T13:28:28+02:00</time>
      </trkpt>
      <trkpt lat="43.81034" lon="6.94132">
        <ele>1386</ele>
        <time>2016-09-10T13:28:33+02:00</time>
      </trkpt>
      <trkpt lat="43.80893" lon="6.94145">
        <ele>1388</ele>
        <time>2016-09-10T13:28:38+02:00</time>
      </trkpt>
      <trkpt lat="43.80797" lon="6.9428">
        <ele>1382</ele>
        <time>2016-09-10T13:28:43+02:00</time>
      </trkpt>
      <trkpt lat="43.80715" lon="6.94228">
        <ele>1359</ele>
        <time>2016-09-10T13:28:48+02:00</time>
      </trkpt>
      <trkpt lat="43.80584" lon="6.94237">
        <ele>1310</ele>
        <time>2016-09-10T13:28:53+02:00</time>
      </trkpt>
      <trkpt lat="43.80483" lon="6.94398">
        <ele>1267</ele>
        <time>2016-09-10T13:28:58+02:00</time>
      </trkpt>
      <trkpt lat="43.80412" lon="6.94394">
        <ele>1236</ele>
        <time>2016-09-10T13:29:03+02:00</time>
      </trkpt>
      <trkpt lat="43.80378" lon="6.94243">
        <ele>1230</ele>
        <time>2016-09-10T13:29:08+02:00</time>
      </trkpt>
      <trkpt lat="43.80332" lon="6.94285">
        <ele>1203</ele>
        <time>2016-09-10T13:29:13+02:00</time>
      </trkpt>
      <trkpt lat="43.80227" lon="6.94838">
        <ele>1092</ele>
        <time>2016-09-10T13:29:18+02:00</time>
      </trkpt>
      <trkpt lat="43.80196" lon="6.94788">
        <ele>1070</ele>
        <time>2016-09-10T13:29:23+02:00</time>
      </trkpt>
      <trkpt lat="43.80117" lon="6.94894">
        <ele>1036</ele>
        <time>2016-09-10T13:29:28+02:00</time>
      </trkpt>
      <trkpt lat="43.80052" lon="6.94657">
        <ele>994</ele>
        <time>2016-09-10T13:29:33+02:00</time>
      </trkpt>
      <trkpt lat="43.79986" lon="6.94688">
        <ele>971</ele>
        <time>2016-09-10T13:29:38+02:00</time>
      </trkpt>
      <trkpt lat="43.79885" lon="6.9446">
        <ele>929</ele>
        <time>2016-09-10T13:29:43+02:00</time>
      </trkpt>
      <trkpt lat="43.79815" lon="6.94638">
        <ele>898</ele>
        <time>2016-09-10T13:29:48+02:00</time>
      </trkpt>
      <trkpt lat="43.79545" lon="6.94413">
        <ele>835</ele>
        <time>2016-09-10T13:29:53+02:00</time>
      </trkpt>
    </trkseg>
  </trk>
</gpx>